Saint Charles, South Dakota
Current Conditions -  °F | °C
As of 4:08 AM on Sunday 23 Nov 2014 (Local Time) from KICR Reporting Station
Broken Clouds Broken Clouds  
Wind Chill: 32°   Ceiling: 2500
Heat Index: 41°   Visibility: 10mi
Dew Point: 35°   Wind: 17mph
Humidity: 79%   Direction: 310°NW
Pressure: 29.52"   Gusts: NA
Location:  43.09°N, 99.1°W
Report Text: KICR 231008Z AUTO 31015KT 10SM BKN025 05/02 A2952 RMK AO2 T00500017
Loading
Personal Weather Stations






























Interactive Weather Map New forecast layout! Learn more

10-Day Weather Forecast

Advertisements
Track Severe Weather on mobile